sensor_id;sensor_type;location;lat;lon;timestamp;temperature;humidity
3846;DHT22;1938;50.812;7.738;2022-09-12T00:02:22;12.10;99.90
3846;DHT22;1938;50.812;7.738;2022-09-12T00:04:48;12.10;99.90
3846;DHT22;1938;50.812;7.738;2022-09-12T00:07:14;12.10;99.90
3846;DHT22;1938;50.812;7.738;2022-09-12T00:09:40;12.20;99.90
3846;DHT22;1938;50.812;7.738;2022-09-12T00:12:06;12.10;99.90
3846;DHT22;1938;50.812;7.738;2022-09-12T00:14:32;12.10;99.90
3846;DHT22;1938;50.812;7.738;2022-09-12T00:16:58;12.10;99.90
3846;DHT22;1938;50.812;7.738;2022-09-12T00:19:25;12.00;99.90
3846;DHT22;1938;50.812;7.738;2022-09-12T00:21:51;12.00;99.90
3846;DHT22;1938;50.812;7.738;2022-09-12T00:24:17;12.00;99.90
3846;DHT22;1938;50.812;7.738;2022-09-12T00:26:43;12.00;99.90
3846;DHT22;1938;50.812;7.738;2022-09-12T00:29:17;11.90;99.90
3846;DHT22;1938;50.812;7.738;2022-09-12T00:31:44;11.90;99.90
3846;DHT22;1938;50.812;7.738;2022-09-12T00:34:11;11.90;99.90
3846;DHT22;1938;50.812;7.738;2022-09-12T00:36:38;11.90;99.90
3846;DHT22;1938;50.812;7.738;2022-09-12T00:39:04;11.90;99.90
3846;DHT22;1938;50.812;7.738;2022-09-12T00:41:36;11.80;99.90
3846;DHT22;1938;50.812;7.738;2022-09-12T00:49:56;11.70;99.90
3846;DHT22;1938;50.812;7.738;2022-09-12T00:52:27;11.60;99.90
3846;DHT22;1938;50.812;7.738;2022-09-12T00:57:26;11.50;99.90
3846;DHT22;1938;50.812;7.738;2022-09-12T00:59:56;11.40;99.90
3846;DHT22;1938;50.812;7.738;2022-09-12T01:02:23;11.40;99.90
3846;DHT22;1938;50.812;7.738;2022-09-12T01:04:50;11.40;99.90
3846;DHT22;1938;50.812;7.738;2022-09-12T01:07:17;11.40;99.90
3846;DHT22;1938;50.812;7.738;2022-09-12T01:09:44;11.40;99.90
3846;DHT22;1938;50.812;7.738;2022-09-12T01:12:12;11.30;99.90
3846;DHT22;1938;50.812;7.738;2022-09-12T01:14:40;11.30;99.90
3846;DHT22;1938;50.812;7.738;2022-09-12T01:17:06;11.20;99.90
3846;DHT22;1938;50.812;7.738;2022-09-12T01:26:08;11.10;99.90
3846;DHT22;1938;50.812;7.738;2022-09-12T01:31:45;11.20;99.90
3846;DHT22;1938;50.812;7.738;2022-09-12T01:34:22;11.20;99.90
3846;DHT22;1938;50.812;7.738;2022-09-12T01:39:31;11.10;99.90
3846;DHT22;1938;50.812;7.738;2022-09-12T01:42:07;11.10;99.90
3846;DHT22;1938;50.812;7.738;2022-09-12T01:49:39;11.10;99.90
3846;DHT22;1938;50.812;7.738;2022-09-12T01:52:27;11.10;99.90
3846;DHT22;1938;50.812;7.738;2022-09-12T01:55:03;11.10;99.90
3846;DHT22;1938;50.812;7.738;2022-09-12T01:57:35;11.10;99.90
3846;DHT22;1938;50.812;7.738;2022-09-12T02:00:09;11.10;99.90
3846;DHT22;1938;50.812;7.738;2022-09-12T02:05:50;11.20;99.90
3846;DHT22;1938;50.812;7.738;2022-09-12T02:08:21;11.10;99.90
3846;DHT22;1938;50.812;7.738;2022-09-12T02:10:55;11.20;99.90
3846;DHT22;1938;50.812;7.738;2022-09-12T02:13:28;11.20;99.90
3846;DHT22;1938;50.812;7.738;2022-09-12T02:16:04;11.20;99.90
3846;DHT22;1938;50.812;7.738;2022-09-12T02:18:32;11.20;99.90
3846;DHT22;1938;50.812;7.738;2022-09-12T02:20:59;11.30;99.90
3846;DHT22;1938;50.812;7.738;2022-09-12T02:23:28;11.20;99.90
3846;DHT22;1938;50.812;7.738;2022-09-12T02:25:59;11.20;99.90
3846;DHT22;1938;50.812;7.738;2022-09-12T02:28:39;11.30;99.90
3846;DHT22;1938;50.812;7.738;2022-09-12T02:33:50;11.30;99.90
3846;DHT22;1938;50.812;7.738;2022-09-12T02:39:00;11.30;99.90
3846;DHT22;1938;50.812;7.738;2022-09-12T02:41:26;11.30;99.90
3846;DHT22;1938;50.812;7.738;2022-09-12T02:43:52;11.30;99.90
3846;DHT22;1938;50.812;7.738;2022-09-12T02:46:22;11.30;99.90
3846;DHT22;1938;50.812;7.738;2022-09-12T02:48:50;11.40;99.90
3846;DHT22;1938;50.812;7.738;2022-09-12T02:51:15;11.40;99.90
3846;DHT22;1938;50.812;7.738;2022-09-12T02:53:41;11.40;99.90
3846;DHT22;1938;50.812;7.738;2022-09-12T02:56:10;11.40;99.90
3846;DHT22;1938;50.812;7.738;2022-09-12T02:58:38;11.40;99.90
3846;DHT22;1938;50.812;7.738;2022-09-12T03:01:20;11.40;99.90
3846;DHT22;1938;50.812;7.738;2022-09-12T03:06:30;11.40;99.90
3846;DHT22;1938;50.812;7.738;2022-09-12T03:14:33;11.10;99.90
3846;DHT22;1938;50.812;7.738;2022-09-12T03:17:26;11.00;99.90
3846;DHT22;1938;50.812;7.738;2022-09-12T03:20:09;11.00;99.90
3846;DHT22;1938;50.812;7.738;2022-09-12T03:22:56;10.90;99.90
3846;DHT22;1938;50.812;7.738;2022-09-12T03:25:33;11.00;99.90
3846;DHT22;1938;50.812;7.738;2022-09-12T03:28:10;11.00;99.90
3846;DHT22;1938;50.812;7.738;2022-09-12T03:30:45;11.00;99.90
3846;DHT22;1938;50.812;7.738;2022-09-12T03:33:19;11.00;99.90
3846;DHT22;1938;50.812;7.738;2022-09-12T03:35:45;11.00;99.90
3846;DHT22;1938;50.812;7.738;2022-09-12T03:38:11;11.00;99.90
3846;DHT22;1938;50.812;7.738;2022-09-12T03:40:38;11.00;99.90
3846;DHT22;1938;50.812;7.738;2022-09-12T03:43:05;11.00;99.90
3846;DHT22;1938;50.812;7.738;2022-09-12T03:45:31;11.00;99.90
3846;DHT22;1938;50.812;7.738;2022-09-12T03:47:56;11.00;99.90
3846;DHT22;1938;50.812;7.738;2022-09-12T03:50:22;11.00;99.90
3846;DHT22;1938;50.812;7.738;2022-09-12T03:52:49;11.00;99.90
3846;DHT22;1938;50.812;7.738;2022-09-12T03:55:14;11.00;99.90
3846;DHT22;1938;50.812;7.738;2022-09-12T03:57:40;11.00;99.90
3846;DHT22;1938;50.812;7.738;2022-09-12T04:00:06;11.00;99.90
3846;DHT22;1938;50.812;7.738;2022-09-12T04:02:34;11.00;99.90
3846;DHT22;1938;50.812;7.738;2022-09-12T04:04:59;11.00;99.90
3846;DHT22;1938;50.812;7.738;2022-09-12T04:07:25;11.00;99.90
3846;DHT22;1938;50.812;7.738;2022-09-12T04:09:52;11.10;99.90
3846;DHT22;1938;50.812;7.738;2022-09-12T04:12:19;11.00;99.90
3846;DHT22;1938;50.812;7.738;2022-09-12T04:14:44;11.00;99.90
3846;DHT22;1938;50.812;7.738;2022-09-12T04:17:11;10.90;99.90
3846;DHT22;1938;50.812;7.738;2022-09-12T04:19:37;10.90;99.90
3846;DHT22;1938;50.812;7.738;2022-09-12T04:22:03;10.90;99.90
3846;DHT22;1938;50.812;7.738;2022-09-12T04:24:29;10.80;99.90
3846;DHT22;1938;50.812;7.738;2022-09-12T04:26:54;10.80;99.90
3846;DHT22;1938;50.812;7.738;2022-09-12T04:29:20;10.70;99.90
3846;DHT22;1938;50.812;7.738;2022-09-12T04:31:45;10.70;99.90
3846;DHT22;1938;50.812;7.738;2022-09-12T04:34:11;10.70;99.90
3846;DHT22;1938;50.812;7.738;2022-09-12T04:36:38;10.60;99.90
3846;DHT22;1938;50.812;7.738;2022-09-12T04:39:04;10.60;99.90
3846;DHT22;1938;50.812;7.738;2022-09-12T04:41:32;10.60;99.90
3846;DHT22;1938;50.812;7.738;2022-09-12T04:44:02;10.60;99.90
3846;DHT22;1938;50.812;7.738;2022-09-12T04:46:30;10.60;99.90
3846;DHT22;1938;50.812;7.738;2022-09-12T04:48:56;10.60;99.90
3846;DHT22;1938;50.812;7.738;2022-09-12T04:51:27;10.60;99.90
3846;DHT22;1938;50.812;7.738;2022-09-12T04:53:59;10.60;99.90
3846;DHT22;1938;50.812;7.738;2022-09-12T04:56:26;10.60;99.90
3846;DHT22;1938;50.812;7.738;2022-09-12T04:58:52;10.50;99.90
3846;DHT22;1938;50.812;7.738;2022-09-12T05:01:20;10.60;99.90
3846;DHT22;1938;50.812;7.738;2022-09-12T05:03:47;10.50;99.90
3846;DHT22;1938;50.812;7.738;2022-09-12T05:08:40;10.50;99.90
3846;DHT22;1938;50.812;7.738;2022-09-12T05:11:09;10.50;99.90
3846;DHT22;1938;50.812;7.738;2022-09-12T05:13:37;10.60;99.90
3846;DHT22;1938;50.812;7.738;2022-09-12T05:16:05;10.60;99.90
3846;DHT22;1938;50.812;7.738;2022-09-12T05:18:33;10.70;99.90
3846;DHT22;1938;50.812;7.738;2022-09-12T05:21:00;10.70;99.90
3846;DHT22;1938;50.812;7.738;2022-09-12T05:23:27;10.80;99.90
3846;DHT22;1938;50.812;7.738;2022-09-12T05:25:54;10.90;99.90
3846;DHT22;1938;50.812;7.738;2022-09-12T05:28:21;10.90;99.90
3846;DHT22;1938;50.812;7.738;2022-09-12T05:30:47;10.90;99.90
3846;DHT22;1938;50.812;7.738;2022-09-12T05:33:13;10.90;99.90
3846;DHT22;1938;50.812;7.738;2022-09-12T05:35:39;10.90;99.90
3846;DHT22;1938;50.812;7.738;2022-09-12T05:38:08;11.00;99.90
3846;DHT22;1938;50.812;7.738;2022-09-12T05:40:34;11.60;99.90
3846;DHT22;1938;50.812;7.738;2022-09-12T05:43:00;12.80;99.90
3846;DHT22;1938;50.812;7.738;2022-09-12T05:45:25;13.40;44.70
3846;DHT22;1938;50.812;7.738;2022-09-12T05:47:52;14.70;1.00
3846;DHT22;1938;50.812;7.738;2022-09-12T05:50:18;15.20;99.90
3846;DHT22;1938;50.812;7.738;2022-09-12T05:52:44;15.80;99.90
3846;DHT22;1938;50.812;7.738;2022-09-12T05:55:10;16.60;99.90
3846;DHT22;1938;50.812;7.738;2022-09-12T05:57:35;16.60;99.90
3846;DHT22;1938;50.812;7.738;2022-09-12T06:00:02;16.70;60.60
3846;DHT22;1938;50.812;7.738;2022-09-12T06:02:28;17.20;1.00
3846;DHT22;1938;50.812;7.738;2022-09-12T06:04:54;18.10;99.90
3846;DHT22;1938;50.812;7.738;2022-09-12T06:07:19;18.30;99.90
3846;DHT22;1938;50.812;7.738;2022-09-12T06:09:46;18.60;99.90
3846;DHT22;1938;50.812;7.738;2022-09-12T06:12:11;18.60;99.90
3846;DHT22;1938;50.812;7.738;2022-09-12T06:14:38;19.30;36.90
3846;DHT22;1938;50.812;7.738;2022-09-12T06:17:03;20.10;7.20
3846;DHT22;1938;50.812;7.738;2022-09-12T06:19:29;19.90;1.00
3846;DHT22;1938;50.812;7.738;2022-09-12T06:21:55;20.60;1.00
3846;DHT22;1938;50.812;7.738;2022-09-12T06:24:21;20.60;1.00
3846;DHT22;1938;50.812;7.738;2022-09-12T06:26:48;20.20;1.00
3846;DHT22;1938;50.812;7.738;2022-09-12T06:29:14;20.00;1.00
3846;DHT22;1938;50.812;7.738;2022-09-12T06:31:41;20.20;1.00
3846;DHT22;1938;50.812;7.738;2022-09-12T06:34:09;20.20;1.00
3846;DHT22;1938;50.812;7.738;2022-09-12T06:36:44;20.70;1.00
3846;DHT22;1938;50.812;7.738;2022-09-12T06:39:15;20.40;1.00
3846;DHT22;1938;50.812;7.738;2022-09-12T06:41:41;19.50;12.70
3846;DHT22;1938;50.812;7.738;2022-09-12T06:44:07;18.20;99.90
3846;DHT22;1938;50.812;7.738;2022-09-12T06:46:33;17.10;1.00
3846;DHT22;1938;50.812;7.738;2022-09-12T06:49:00;16.90;99.90
3846;DHT22;1938;50.812;7.738;2022-09-12T06:51:27;17.10;99.90
3846;DHT22;1938;50.812;7.738;2022-09-12T06:53:56;17.60;16.60
3846;DHT22;1938;50.812;7.738;2022-09-12T06:56:25;18.60;99.90
3846;DHT22;1938;50.812;7.738;2022-09-12T06:58:52;19.00;99.90
3846;DHT22;1938;50.812;7.738;2022-09-12T07:01:27;19.40;99.90
3846;DHT22;1938;50.812;7.738;2022-09-12T07:03:58;19.70;99.90
3846;DHT22;1938;50.812;7.738;2022-09-12T07:06:27;19.60;99.90
3846;DHT22;1938;50.812;7.738;2022-09-12T07:09:00;19.30;99.90
3846;DHT22;1938;50.812;7.738;2022-09-12T07:11:35;18.90;99.90
3846;DHT22;1938;50.812;7.738;2022-09-12T07:14:02;18.50;99.90
3846;DHT22;1938;50.812;7.738;2022-09-12T07:16:28;18.60;99.90
3846;DHT22;1938;50.812;7.738;2022-09-12T07:18:55;19.10;99.90
3846;DHT22;1938;50.812;7.738;2022-09-12T07:21:22;20.10;99.90
3846;DHT22;1938;50.812;7.738;2022-09-12T07:23:48;20.80;26.40
3846;DHT22;1938;50.812;7.738;2022-09-12T07:26:15;21.10;1.00
3846;DHT22;1938;50.812;7.738;2022-09-12T07:28:41;21.20;1.00
3846;DHT22;1938;50.812;7.738;2022-09-12T07:31:07;21.70;1.00
3846;DHT22;1938;50.812;7.738;2022-09-12T07:33:33;22.10;1.00
3846;DHT22;1938;50.812;7.738;2022-09-12T07:36:19;23.00;1.00
3846;DHT22;1938;50.812;7.738;2022-09-12T07:38:45;23.00;1.00
3846;DHT22;1938;50.812;7.738;2022-09-12T07:43:39;23.30;99.90
3846;DHT22;1938;50.812;7.738;2022-09-12T07:46:06;23.70;99.90
3846;DHT22;1938;50.812;7.738;2022-09-12T07:48:32;24.00;99.90
3846;DHT22;1938;50.812;7.738;2022-09-12T07:51:03;24.80;99.90
3846;DHT22;1938;50.812;7.738;2022-09-12T07:53:32;25.40;99.90
3846;DHT22;1938;50.812;7.738;2022-09-12T07:55:58;25.10;99.90
3846;DHT22;1938;50.812;7.738;2022-09-12T07:58:24;25.90;99.90
3846;DHT22;1938;50.812;7.738;2022-09-12T08:00:50;26.60;99.90
3846;DHT22;1938;50.812;7.738;2022-09-12T08:03:16;27.40;99.90
3846;DHT22;1938;50.812;7.738;2022-09-12T08:05:42;27.20;99.90
3846;DHT22;1938;50.812;7.738;2022-09-12T08:08:07;27.90;99.90
3846;DHT22;1938;50.812;7.738;2022-09-12T08:10:34;28.40;99.90
3846;DHT22;1938;50.812;7.738;2022-09-12T08:13:00;28.30;99.90
3846;DHT22;1938;50.812;7.738;2022-09-12T08:15:25;28.10;99.90
3846;DHT22;1938;50.812;7.738;2022-09-12T08:17:51;28.00;99.90
3846;DHT22;1938;50.812;7.738;2022-09-12T08:20:16;27.50;99.90
3846;DHT22;1938;50.812;7.738;2022-09-12T08:22:43;27.80;99.90
3846;DHT22;1938;50.812;7.738;2022-09-12T08:25:08;27.50;99.90
3846;DHT22;1938;50.812;7.738;2022-09-12T08:27:34;27.00;99.90
3846;DHT22;1938;50.812;7.738;2022-09-12T08:30:00;26.90;99.90
3846;DHT22;1938;50.812;7.738;2022-09-12T08:32:26;26.50;99.90
3846;DHT22;1938;50.812;7.738;2022-09-12T08:34:51;25.70;99.90
3846;DHT22;1938;50.812;7.738;2022-09-12T08:37:17;25.80;99.90
3846;DHT22;1938;50.812;7.738;2022-09-12T08:39:43;25.30;99.90
3846;DHT22;1938;50.812;7.738;2022-09-12T08:42:09;25.60;99.90
3846;DHT22;1938;50.812;7.738;2022-09-12T08:47:35;26.20;99.90
3846;DHT22;1938;50.812;7.738;2022-09-12T08:55:34;26.80;99.90
3846;DHT22;1938;50.812;7.738;2022-09-12T09:04:05;27.70;99.90
3846;DHT22;1938;50.812;7.738;2022-09-12T09:09:59;28.10;99.90
3846;DHT22;1938;50.812;7.738;2022-09-12T09:15:58;27.90;99.90
3846;DHT22;1938;50.812;7.738;2022-09-12T09:18:30;27.90;99.90
3846;DHT22;1938;50.812;7.738;2022-09-12T09:21:07;27.90;99.90
3846;DHT22;1938;50.812;7.738;2022-09-12T09:23:41;28.10;99.90
3846;DHT22;1938;50.812;7.738;2022-09-12T09:26:21;28.20;99.90
3846;DHT22;1938;50.812;7.738;2022-09-12T09:29:19;28.00;99.90
3846;DHT22;1938;50.812;7.738;2022-09-12T09:31:52;28.10;99.90
3846;DHT22;1938;50.812;7.738;2022-09-12T09:34:21;28.40;99.90
3846;DHT22;1938;50.812;7.738;2022-09-12T09:40:22;28.60;99.90
3846;DHT22;1938;50.812;7.738;2022-09-12T09:42:59;28.60;99.90
3846;DHT22;1938;50.812;7.738;2022-09-12T09:45:27;28.50;95.80
3846;DHT22;1938;50.812;7.738;2022-09-12T09:50:36;28.10;99.90
3846;DHT22;1938;50.812;7.738;2022-09-12T09:53:03;27.70;99.90
3846;DHT22;1938;50.812;7.738;2022-09-12T09:55:41;27.60;99.90
3846;DHT22;1938;50.812;7.738;2022-09-12T09:58:07;27.60;99.90
3846;DHT22;1938;50.812;7.738;2022-09-12T10:00:37;27.50;99.90
3846;DHT22;1938;50.812;7.738;2022-09-12T10:05:45;27.50;99.90
3846;DHT22;1938;50.812;7.738;2022-09-12T10:08:20;27.40;94.20
3846;DHT22;1938;50.812;7.738;2022-09-12T10:11:16;27.10;99.90
3846;DHT22;1938;50.812;7.738;2022-09-12T10:16:28;27.10;99.90
3846;DHT22;1938;50.812;7.738;2022-09-12T10:18:56;27.00;97.50
3846;DHT22;1938;50.812;7.738;2022-09-12T10:21:27;26.90;92.60
3846;DHT22;1938;50.812;7.738;2022-09-12T10:24:21;27.00;92.90
3846;DHT22;1938;50.812;7.738;2022-09-12T10:27:04;26.80;81.10
3846;DHT22;1938;50.812;7.738;2022-09-12T10:29:32;26.70;95.60
3846;DHT22;1938;50.812;7.738;2022-09-12T10:32:02;26.60;92.90
3846;DHT22;1938;50.812;7.738;2022-09-12T10:34:37;26.50;90.50
3846;DHT22;1938;50.812;7.738;2022-09-12T10:37:15;26.40;88.30
3846;DHT22;1938;50.812;7.738;2022-09-12T10:39:53;26.30;78.30
3846;DHT22;1938;50.812;7.738;2022-09-12T10:42:52;26.30;93.30
3846;DHT22;1938;50.812;7.738;2022-09-12T10:45:40;26.40;85.70
3846;DHT22;1938;50.812;7.738;2022-09-12T10:48:27;26.40;89.00
3846;DHT22;1938;50.812;7.738;2022-09-12T10:50:54;26.70;90.80
3846;DHT22;1938;50.812;7.738;2022-09-12T10:53:31;26.80;63.20
3846;DHT22;1938;50.812;7.738;2022-09-12T10:58:38;26.70;74.60
3846;DHT22;1938;50.812;7.738;2022-09-12T11:07:34;26.70;64.70
3846;DHT22;1938;50.812;7.738;2022-09-12T11:10:14;26.70;60.20
3846;DHT22;1938;50.812;7.738;2022-09-12T11:12:46;26.50;57.00
3846;DHT22;1938;50.812;7.738;2022-09-12T11:15:42;26.30;56.10
3846;DHT22;1938;50.812;7.738;2022-09-12T11:23:36;26.30;64.50
3846;DHT22;1938;50.812;7.738;2022-09-12T11:31:55;25.70;66.40
3846;DHT22;1938;50.812;7.738;2022-09-12T11:37:53;25.80;74.60
3846;DHT22;1938;50.812;7.738;2022-09-12T11:40:28;25.50;61.70
3846;DHT22;1938;50.812;7.738;2022-09-12T11:43:00;25.40;66.50
3846;DHT22;1938;50.812;7.738;2022-09-12T11:45:40;25.40;67.00
3846;DHT22;1938;50.812;7.738;2022-09-12T11:48:11;25.40;57.40
3846;DHT22;1938;50.812;7.738;2022-09-12T11:50:39;25.40;58.10
3846;DHT22;1938;50.812;7.738;2022-09-12T11:53:18;25.30;52.50
3846;DHT22;1938;50.812;7.738;2022-09-12T11:55:54;25.30;53.30
3846;DHT22;1938;50.812;7.738;2022-09-12T11:58:25;25.10;59.80
3846;DHT22;1938;50.812;7.738;2022-09-12T12:00:56;25.00;61.00
3846;DHT22;1938;50.812;7.738;2022-09-12T12:06:06;24.90;70.50
3846;DHT22;1938;50.812;7.738;2022-09-12T12:08:37;24.90;57.40
3846;DHT22;1938;50.812;7.738;2022-09-12T12:11:05;24.90;55.80
3846;DHT22;1938;50.812;7.738;2022-09-12T12:16:06;24.80;65.90
3846;DHT22;1938;50.812;7.738;2022-09-12T12:18:36;24.90;65.00
3846;DHT22;1938;50.812;7.738;2022-09-12T12:34:36;24.60;61.40
3846;DHT22;1938;50.812;7.738;2022-09-12T12:37:45;24.50;70.20
3846;DHT22;1938;50.812;7.738;2022-09-12T12:40:21;24.60;72.30
3846;DHT22;1938;50.812;7.738;2022-09-12T12:48:00;24.60;65.40
3846;DHT22;1938;50.812;7.738;2022-09-12T12:50:33;24.50;66.50
3846;DHT22;1938;50.812;7.738;2022-09-12T12:53:01;24.20;71.70
3846;DHT22;1938;50.812;7.738;2022-09-12T12:55:32;24.20;75.90
3846;DHT22;1938;50.812;7.738;2022-09-12T12:58:04;24.30;85.40
3846;DHT22;1938;50.812;7.738;2022-09-12T13:00:36;24.30;90.50
3846;DHT22;1938;50.812;7.738;2022-09-12T13:05:47;24.30;98.20
3846;DHT22;1938;50.812;7.738;2022-09-12T13:10:49;24.40;99.00
3846;DHT22;1938;50.812;7.738;2022-09-12T13:14:05;24.40;93.00
3846;DHT22;1938;50.812;7.738;2022-09-12T13:18:59;24.50;92.20
3846;DHT22;1938;50.812;7.738;2022-09-12T13:21:26;24.60;91.20
3846;DHT22;1938;50.812;7.738;2022-09-12T13:24:18;24.50;81.40
3846;DHT22;1938;50.812;7.738;2022-09-12T13:26:46;24.50;86.90
3846;DHT22;1938;50.812;7.738;2022-09-12T13:29:19;24.50;95.70
3846;DHT22;1938;50.812;7.738;2022-09-12T13:31:53;24.60;94.80
3846;DHT22;1938;50.812;7.738;2022-09-12T13:34:29;24.70;73.10
3846;DHT22;1938;50.812;7.738;2022-09-12T13:39:50;24.60;76.60
3846;DHT22;1938;50.812;7.738;2022-09-12T13:45:01;24.30;92.80
3846;DHT22;1938;50.812;7.738;2022-09-12T13:47:37;24.30;95.50
3846;DHT22;1938;50.812;7.738;2022-09-12T13:50:05;24.40;99.00
3846;DHT22;1938;50.812;7.738;2022-09-12T13:52:34;24.50;94.30
3846;DHT22;1938;50.812;7.738;2022-09-12T13:55:05;24.50;86.80
3846;DHT22;1938;50.812;7.738;2022-09-12T13:57:35;24.60;84.90
3846;DHT22;1938;50.812;7.738;2022-09-12T14:00:17;24.60;82.50
3846;DHT22;1938;50.812;7.738;2022-09-12T14:02:45;24.60;82.10
3846;DHT22;1938;50.812;7.738;2022-09-12T14:05:21;24.60;83.90
3846;DHT22;1938;50.812;7.738;2022-09-12T14:07:51;24.70;85.20
3846;DHT22;1938;50.812;7.738;2022-09-12T14:12:55;24.70;66.70
3846;DHT22;1938;50.812;7.738;2022-09-12T14:15:24;24.60;57.40
3846;DHT22;1938;50.812;7.738;2022-09-12T14:17:54;24.50;63.60
3846;DHT22;1938;50.812;7.738;2022-09-12T14:20:21;24.50;67.40
3846;DHT22;1938;50.812;7.738;2022-09-12T14:22:49;24.50;61.10
3846;DHT22;1938;50.812;7.738;2022-09-12T14:25:18;24.50;77.70
3846;DHT22;1938;50.812;7.738;2022-09-12T14:27:47;24.50;77.90
3846;DHT22;1938;50.812;7.738;2022-09-12T14:30:33;24.40;81.30
3846;DHT22;1938;50.812;7.738;2022-09-12T14:38:23;24.30;92.50
3846;DHT22;1938;50.812;7.738;2022-09-12T14:40:58;24.40;92.00
3846;DHT22;1938;50.812;7.738;2022-09-12T14:46:05;24.20;93.50
3846;DHT22;1938;50.812;7.738;2022-09-12T14:48:34;24.20;99.80
3846;DHT22;1938;50.812;7.738;2022-09-12T14:51:01;24.20;93.30
3846;DHT22;1938;50.812;7.738;2022-09-12T14:53:35;24.20;99.90
3846;DHT22;1938;50.812;7.738;2022-09-12T14:56:09;24.30;99.90
3846;DHT22;1938;50.812;7.738;2022-09-12T14:58:36;24.40;94.90
3846;DHT22;1938;50.812;7.738;2022-09-12T15:01:20;24.40;80.90
3846;DHT22;1938;50.812;7.738;2022-09-12T15:06:26;24.50;89.40
3846;DHT22;1938;50.812;7.738;2022-09-12T15:08:54;24.60;74.60
3846;DHT22;1938;50.812;7.738;2022-09-12T15:11:21;24.50;85.40
3846;DHT22;1938;50.812;7.738;2022-09-12T15:13:46;24.50;87.70
3846;DHT22;1938;50.812;7.738;2022-09-12T15:16:12;24.60;86.60
3846;DHT22;1938;50.812;7.738;2022-09-12T15:18:38;24.60;92.40
3846;DHT22;1938;50.812;7.738;2022-09-12T15:21:06;24.60;85.80
3846;DHT22;1938;50.812;7.738;2022-09-12T15:23:44;24.70;91.80
3846;DHT22;1938;50.812;7.738;2022-09-12T15:26:13;24.70;91.00
3846;DHT22;1938;50.812;7.738;2022-09-12T15:28:39;24.80;90.50
3846;DHT22;1938;50.812;7.738;2022-09-12T15:31:10;24.70;86.90
3846;DHT22;1938;50.812;7.738;2022-09-12T15:33:37;24.50;79.90
3846;DHT22;1938;50.812;7.738;2022-09-12T15:36:04;24.40;87.70
3846;DHT22;1938;50.812;7.738;2022-09-12T15:38:36;24.50;84.70
3846;DHT22;1938;50.812;7.738;2022-09-12T15:41:01;24.40;84.40
3846;DHT22;1938;50.812;7.738;2022-09-12T15:43:27;24.40;92.40
3846;DHT22;1938;50.812;7.738;2022-09-12T15:45:52;24.40;94.30
3846;DHT22;1938;50.812;7.738;2022-09-12T15:48:18;24.40;92.10
3846;DHT22;1938;50.812;7.738;2022-09-12T15:50:44;24.30;86.50
3846;DHT22;1938;50.812;7.738;2022-09-12T15:53:13;24.30;89.20
3846;DHT22;1938;50.812;7.738;2022-09-12T15:55:40;24.30;85.40
3846;DHT22;1938;50.812;7.738;2022-09-12T15:58:06;24.20;80.10
3846;DHT22;1938;50.812;7.738;2022-09-12T16:00:31;24.20;90.20
3846;DHT22;1938;50.812;7.738;2022-09-12T16:02:57;24.20;94.40
3846;DHT22;1938;50.812;7.738;2022-09-12T16:05:24;24.20;95.10
3846;DHT22;1938;50.812;7.738;2022-09-12T16:07:52;24.20;88.40
3846;DHT22;1938;50.812;7.738;2022-09-12T16:10:21;24.10;90.10
3846;DHT22;1938;50.812;7.738;2022-09-12T16:12:47;24.00;90.20
3846;DHT22;1938;50.812;7.738;2022-09-12T16:15:15;23.90;85.20
3846;DHT22;1938;50.812;7.738;2022-09-12T16:17:41;23.90;92.10
3846;DHT22;1938;50.812;7.738;2022-09-12T16:20:07;23.90;92.70
3846;DHT22;1938;50.812;7.738;2022-09-12T16:22:33;23.80;93.10
3846;DHT22;1938;50.812;7.738;2022-09-12T16:24:59;23.70;85.10
3846;DHT22;1938;50.812;7.738;2022-09-12T16:27:24;23.60;87.60
3846;DHT22;1938;50.812;7.738;2022-09-12T16:29:50;23.60;80.60
3846;DHT22;1938;50.812;7.738;2022-09-12T16:32:16;23.50;90.00
3846;DHT22;1938;50.812;7.738;2022-09-12T16:34:42;23.40;95.10
3846;DHT22;1938;50.812;7.738;2022-09-12T16:37:08;23.30;89.70
3846;DHT22;1938;50.812;7.738;2022-09-12T16:39:35;23.20;89.30
3846;DHT22;1938;50.812;7.738;2022-09-12T16:42:00;23.20;91.50
3846;DHT22;1938;50.812;7.738;2022-09-12T16:44:26;23.10;98.10
3846;DHT22;1938;50.812;7.738;2022-09-12T16:46:51;23.00;99.90
3846;DHT22;1938;50.812;7.738;2022-09-12T16:49:18;23.00;99.90
3846;DHT22;1938;50.812;7.738;2022-09-12T16:51:43;22.90;99.90
3846;DHT22;1938;50.812;7.738;2022-09-12T16:54:15;22.90;99.90
3846;DHT22;1938;50.812;7.738;2022-09-12T16:56:42;22.80;99.90
3846;DHT22;1938;50.812;7.738;2022-09-12T16:59:07;22.70;99.90
3846;DHT22;1938;50.812;7.738;2022-09-12T17:01:37;22.70;99.90
3846;DHT22;1938;50.812;7.738;2022-09-12T17:04:03;22.60;99.90
3846;DHT22;1938;50.812;7.738;2022-09-12T17:06:29;22.50;99.90
3846;DHT22;1938;50.812;7.738;2022-09-12T17:08:58;22.50;99.90
3846;DHT22;1938;50.812;7.738;2022-09-12T17:11:31;22.40;99.90
3846;DHT22;1938;50.812;7.738;2022-09-12T17:13:58;22.40;99.90
3846;DHT22;1938;50.812;7.738;2022-09-12T17:16:24;22.30;99.90
3846;DHT22;1938;50.812;7.738;2022-09-12T17:18:52;22.20;99.90
3846;DHT22;1938;50.812;7.738;2022-09-12T17:21:18;22.20;99.90
3846;DHT22;1938;50.812;7.738;2022-09-12T17:23:45;22.20;99.90
3846;DHT22;1938;50.812;7.738;2022-09-12T17:26:11;22.10;99.90
3846;DHT22;1938;50.812;7.738;2022-09-12T17:28:38;22.00;99.90
3846;DHT22;1938;50.812;7.738;2022-09-12T17:31:06;22.00;99.90
3846;DHT22;1938;50.812;7.738;2022-09-12T17:33:32;22.00;99.90
3846;DHT22;1938;50.812;7.738;2022-09-12T17:36:03;21.90;99.90
3846;DHT22;1938;50.812;7.738;2022-09-12T17:38:35;21.80;99.90
3846;DHT22;1938;50.812;7.738;2022-09-12T17:41:22;21.70;99.90
3846;DHT22;1938;50.812;7.738;2022-09-12T17:43:50;21.60;99.90
3846;DHT22;1938;50.812;7.738;2022-09-12T17:46:17;21.50;99.90
3846;DHT22;1938;50.812;7.738;2022-09-12T17:48:43;21.40;99.90
3846;DHT22;1938;50.812;7.738;2022-09-12T17:51:11;21.30;99.90
3846;DHT22;1938;50.812;7.738;2022-09-12T17:53:38;21.20;99.90
3846;DHT22;1938;50.812;7.738;2022-09-12T17:56:04;21.20;99.90
3846;DHT22;1938;50.812;7.738;2022-09-12T17:58:31;21.10;99.90
3846;DHT22;1938;50.812;7.738;2022-09-12T18:01:05;21.00;99.90
3846;DHT22;1938;50.812;7.738;2022-09-12T18:03:54;20.90;99.90
3846;DHT22;1938;50.812;7.738;2022-09-12T18:06:20;20.90;99.90
3846;DHT22;1938;50.812;7.738;2022-09-12T18:08:46;20.70;99.90
3846;DHT22;1938;50.812;7.738;2022-09-12T18:11:11;20.70;99.90
3846;DHT22;1938;50.812;7.738;2022-09-12T18:13:37;20.60;99.90
3846;DHT22;1938;50.812;7.738;2022-09-12T18:16:08;20.50;99.90
3846;DHT22;1938;50.812;7.738;2022-09-12T18:18:34;20.40;99.90
3846;DHT22;1938;50.812;7.738;2022-09-12T18:21:02;20.40;99.90
3846;DHT22;1938;50.812;7.738;2022-09-12T18:23:28;20.40;99.90
3846;DHT22;1938;50.812;7.738;2022-09-12T18:26:02;20.40;99.90
3846;DHT22;1938;50.812;7.738;2022-09-12T18:28:28;20.30;99.90
3846;DHT22;1938;50.812;7.738;2022-09-12T18:30:55;20.20;99.90
3846;DHT22;1938;50.812;7.738;2022-09-12T18:33:21;20.10;99.90
3846;DHT22;1938;50.812;7.738;2022-09-12T18:35:47;20.00;99.90
3846;DHT22;1938;50.812;7.738;2022-09-12T18:38:12;20.00;99.90
3846;DHT22;1938;50.812;7.738;2022-09-12T18:40:38;20.00;99.90
3846;DHT22;1938;50.812;7.738;2022-09-12T18:43:03;19.90;99.90
3846;DHT22;1938;50.812;7.738;2022-09-12T18:45:29;19.90;99.90
3846;DHT22;1938;50.812;7.738;2022-09-12T18:47:55;19.80;99.90
3846;DHT22;1938;50.812;7.738;2022-09-12T18:50:20;19.80;99.90
3846;DHT22;1938;50.812;7.738;2022-09-12T18:52:49;19.70;99.90